This is the latest recevied weather packets stored in our database for station/object AC4AG. If no packets are shown the sender has not sent any weather packets the latest 10 day(s).
| Time | Temp. | Humidity | Pressure | Rain* | Wind** | Luminosity | Snow |
|---|---|---|---|---|---|---|---|
| 1777562700 | 11.67° C | 56% | 1016.5 hPa | 0 mm | - | 727 W/m² | - |
| 1777562400 | 12.22° C | 57% | 1016.6 hPa | 0 mm | - | 731 W/m² | - |
| 1777562096 | 11.67° C | 64% | 1016.5 hPa | 0 mm | - | 637 W/m² | - |
| 1777561793 | 11.67° C | 65% | 1016.2 hPa | 0 mm | - | 184 W/m² | - |
| 1777561489 | 11.11° C | 63% | 1016.2 hPa | 0 mm | - | 730 W/m² | - |
| 1777561184 | 11.11° C | 64% | 1016.1 hPa | 0 mm | - | 495 W/m² | - |
| 1777560879 | 10.56° C | 66% | 1016.2 hPa | 0 mm | - | 684 W/m² | - |
| 1777560577 | 11.67° C | 64% | 1016.3 hPa | 0 mm | - | 217 W/m² | - |
| 1777560275 | 11.11° C | 70% | 1015.9 hPa | 0 mm | - | 646 W/m² | - |
| 1777559973 | 10° C | 71% | 1016.2 hPa | 0 mm | - | 613 W/m² | - |
| 1777559673 | 10° C | 72% | 1016.2 hPa | 0 mm | - | 107 W/m² | - |
| 1777559371 | 10° C | 72% | 1016.1 hPa | 0 mm | - | 143 W/m² | - |
| 1777559067 | 10.56° C | 71% | 1016 hPa | 0 mm | - | 255 W/m² | - |
| 1777558761 | 10° C | 73% | 1016 hPa | 0 mm | - | 282 W/m² | - |
| 1777558458 | 10.56° C | 73% | 1016.1 hPa | 0 mm | - | 173 W/m² | - |
| 1777558154 | 10.56° C | 75% | 1016.2 hPa | 0 mm | - | 521 W/m² | - |
| 1777557850 | 10.56° C | 74% | 1016.1 hPa | 0 mm | - | 575 W/m² | - |
| 1777557548 | 11.11° C | 72% | 1016.1 hPa | 0 mm | - | 552 W/m² | - |
| 1777557244 | 10.56° C | 75% | 1016.1 hPa | 0 mm | - | 517 W/m² | - |
| 1777556940 | 10.56° C | 75% | 1015.9 hPa | 0 mm | - | 326 W/m² | - |
| 1777556635 | 10° C | 76% | 1016 hPa | 0 mm | - | 442 W/m² | - |
| 1777556330 | 10° C | 75% | 1016 hPa | 0 mm | - | 390 W/m² | - |
| 1777556026 | 10° C | 75% | 1015.9 hPa | 0 mm | - | 372 W/m² | - |
| 1777555721 | 10.56° C | 73% | 1016.1 hPa | 0 mm | - | 352 W/m² | - |
| 1777555418 | 10° C | 74% | 1016.3 hPa | 0 mm | - | 332 W/m² | - |
* Rain latest hour (hover to see other rain measurements)
** Current wind speed in m/s (hover to see current wind gust speed)